createdAt,value
2019-04-21T00:02:32.354Z,10.23
2019-04-21T00:05:20.042Z,10.20
2019-04-21T00:07:52.477Z,10.21
2019-04-21T00:10:28.511Z,10.23
2019-04-21T00:12:52.277Z,10.20
2019-04-21T00:15:19.451Z,10.22
2019-04-21T00:17:43.573Z,10.20
2019-04-21T00:20:23.826Z,10.21
2019-04-21T00:22:58.676Z,10.18
2019-04-21T00:25:33.889Z,10.13
2019-04-21T00:28:10.295Z,10.11
2019-04-21T00:30:44.238Z,10.08
2019-04-21T00:33:04.575Z,10.02
2019-04-21T00:35:27.972Z,9.95
2019-04-21T00:38:17.225Z,9.85
2019-04-21T00:40:56.053Z,9.83
2019-04-21T00:43:14.784Z,9.83
2019-04-21T00:45:42.176Z,9.82
2019-04-21T00:48:25.503Z,9.78
2019-04-21T00:51:15.003Z,9.79
2019-04-21T00:53:35.729Z,9.79
2019-04-21T00:56:04.520Z,9.79
2019-04-21T00:58:33.281Z,9.79
2019-04-21T01:01:01.812Z,9.79
2019-04-21T01:03:37.257Z,9.79
2019-04-21T01:06:11.035Z,9.79
2019-04-21T01:08:35.683Z,9.77
2019-04-21T01:11:12.360Z,9.74
2019-04-21T01:13:46.824Z,9.74
2019-04-21T01:16:13.776Z,9.71
2019-04-21T01:18:45.982Z,9.69
2019-04-21T01:20:55.408Z,9.65
2019-04-21T01:23:27.444Z,9.60
2019-04-21T01:26:13.704Z,9.58
2019-04-21T01:28:46.422Z,9.51
2019-04-21T01:31:17.457Z,9.45
2019-04-21T01:33:50.639Z,9.41
2019-04-21T01:36:17.998Z,9.36
2019-04-21T01:38:58.409Z,9.33
2019-04-21T01:43:57.767Z,9.29
2019-04-21T01:46:28.405Z,9.28
2019-04-21T01:48:56.957Z,9.27
2019-04-21T01:51:28.313Z,9.24
2019-04-21T01:54:14.751Z,9.20
2019-04-21T01:56:44.503Z,9.17
2019-04-21T01:59:03.500Z,9.18
2019-04-21T02:01:59.234Z,9.15
2019-04-21T02:04:24.098Z,9.14
2019-04-21T02:06:55.038Z,9.12
2019-04-21T02:09:19.185Z,9.12
2019-04-21T02:11:55.117Z,9.09
2019-04-21T02:14:31.259Z,9.08
2019-04-21T02:17:02.371Z,9.06
2019-04-21T02:19:26.636Z,9.06
2019-04-21T02:21:54.398Z,9.03
2019-04-21T02:24:45.143Z,9.01
2019-04-21T02:27:08.563Z,9.00
2019-04-21T02:29:40.906Z,9.01
2019-04-21T02:32:14.402Z,8.89
2019-04-21T02:37:36.777Z,8.69
2019-04-21T02:39:57.680Z,8.63
2019-04-21T02:42:26.493Z,8.63
2019-04-21T02:47:38.909Z,8.61
2019-04-21T02:52:36.787Z,8.40
2019-04-21T02:55:04.081Z,8.33
2019-04-21T02:57:41.449Z,8.38
2019-04-21T03:02:47.648Z,8.38
2019-04-21T03:05:20.378Z,8.31
2019-04-21T03:08:00.769Z,8.40
2019-04-21T03:10:28.687Z,8.53
2019-04-21T03:12:53.062Z,8.63
2019-04-21T03:15:33.168Z,8.71
2019-04-21T03:18:06.268Z,8.75
2019-04-21T03:20:35.816Z,8.81
2019-04-21T03:23:09.390Z,8.85
2019-04-21T03:28:04.965Z,8.89
2019-04-21T03:33:49.901Z,8.90
2019-04-21T03:38:19.040Z,8.85
2019-04-21T03:40:39.925Z,8.84
2019-04-21T03:43:23.064Z,8.83
2019-04-21T03:45:54.683Z,8.83
2019-04-21T03:48:37.648Z,8.85
2019-04-21T03:50:48.799Z,8.86
2019-04-21T03:53:25.039Z,8.87
2019-04-21T04:01:05.430Z,8.86
2019-04-21T04:06:28.023Z,8.87
2019-04-21T04:09:09.549Z,8.89
2019-04-21T04:11:38.176Z,8.90
2019-04-21T04:14:03.858Z,8.90
2019-04-21T04:16:37.481Z,8.91
2019-04-21T04:18:57.706Z,8.95
2019-04-21T04:21:44.254Z,8.98
2019-04-21T04:24:09.166Z,9.03
2019-04-21T04:26:42.919Z,9.09
2019-04-21T04:29:12.438Z,9.13
2019-04-21T04:34:12.625Z,9.17
2019-04-21T04:36:55.215Z,9.19
2019-04-21T04:42:12.599Z,9.24
2019-04-21T04:44:51.634Z,9.28
2019-04-21T04:49:50.010Z,9.31
2019-04-21T04:52:31.458Z,9.36
2019-04-21T04:57:34.241Z,9.36
2019-04-21T05:04:54.886Z,9.41
2019-04-21T05:07:23.479Z,9.45
2019-04-21T05:09:52.347Z,9.50
2019-04-21T05:12:27.105Z,9.55
2019-04-21T05:20:10.393Z,9.84
2019-04-21T05:22:31.138Z,9.94
2019-04-21T05:24:53.811Z,10.02
2019-04-21T05:27:43.340Z,10.09
2019-04-21T05:30:28.638Z,10.14
2019-04-21T05:33:05.364Z,10.17
2019-04-21T05:35:57.234Z,10.19
2019-04-21T05:38:27.443Z,10.18
2019-04-21T05:41:01.742Z,10.19
2019-04-21T05:43:38.977Z,10.23
2019-04-21T05:46:18.440Z,10.29
2019-04-21T05:48:50.666Z,10.41
2019-04-21T05:51:25.898Z,10.50
2019-04-21T05:54:10.577Z,10.58
2019-04-21T05:56:30.614Z,10.65
2019-04-21T05:59:02.145Z,10.68
2019-04-21T06:04:12.316Z,10.72
2019-04-21T06:06:40.787Z,10.74
2019-04-21T06:09:08.255Z,10.80
2019-04-21T06:11:36.766Z,10.84
2019-04-21T06:14:14.020Z,10.87
2019-04-21T06:16:54.265Z,10.90
2019-04-21T06:19:19.374Z,10.97
2019-04-21T06:21:44.892Z,11.08
2019-04-21T06:24:17.389Z,11.15
2019-04-21T06:27:00.424Z,11.22
2019-04-21T06:29:23.687Z,11.27
2019-04-21T06:34:24.971Z,11.39
2019-04-21T06:37:14.947Z,11.45
2019-04-21T06:39:47.285Z,11.45
2019-04-21T06:42:02.468Z,11.49
2019-04-21T06:44:38.827Z,11.52
2019-04-21T06:47:16.325Z,11.52
2019-04-21T06:49:40.487Z,11.54
2019-04-21T06:52:33.433Z,11.58
2019-04-21T06:54:50.758Z,11.61
2019-04-21T06:57:16.572Z,11.63
2019-04-21T06:59:43.130Z,11.66
2019-04-21T07:04:50.506Z,11.75
2019-04-21T07:07:18.161Z,11.82
2019-04-21T07:09:56.983Z,11.82
2019-04-21T07:12:32.232Z,11.81
2019-04-21T07:15:22.417Z,11.81
2019-04-21T07:17:37.630Z,11.83
2019-04-21T07:20:10.111Z,11.87
2019-04-21T07:22:37.637Z,11.92
2019-04-21T07:25:09.057Z,11.95
2019-04-21T07:27:43.174Z,12.02
2019-04-21T07:30:13.367Z,12.12
2019-04-21T07:32:49.045Z,12.25
2019-04-21T07:35:17.507Z,12.36
2019-04-21T07:37:52.290Z,12.45
2019-04-21T07:40:14.948Z,12.58
2019-04-21T07:42:42.886Z,12.69
2019-04-21T07:45:11.926Z,12.77
2019-04-21T07:47:55.340Z,12.84
2019-04-21T07:50:31.855Z,12.85
2019-04-21T07:53:14.460Z,12.83
2019-04-21T07:58:12.916Z,12.92
2019-04-21T08:03:20.735Z,13.01
2019-04-21T08:05:54.775Z,13.11
2019-04-21T08:08:23.306Z,13.20
2019-04-21T08:10:50.920Z,13.26
2019-04-21T08:13:38.254Z,13.24
2019-04-21T08:15:59.620Z,13.25
2019-04-21T08:18:30.079Z,13.33
2019-04-21T08:21:04.353Z,13.41
2019-04-21T08:23:32.866Z,13.46
2019-04-21T08:26:04.930Z,13.51
2019-04-21T08:31:10.302Z,13.71
2019-04-21T08:33:47.118Z,13.75
2019-04-21T08:38:40.185Z,13.88
2019-04-21T08:46:13.742Z,14.07
2019-04-21T08:48:44.898Z,14.10
2019-04-21T08:51:27.583Z,14.17
2019-04-21T08:56:37.195Z,14.26
2019-04-21T08:59:31.154Z,14.34
2019-04-21T09:02:06.363Z,14.32
2019-04-21T09:04:33.936Z,14.32
2019-04-21T09:07:19.810Z,14.43
2019-04-21T09:09:57.860Z,14.54
2019-04-21T09:12:16.113Z,14.72
2019-04-21T09:14:51.272Z,14.78
2019-04-21T09:17:14.855Z,14.90
2019-04-21T09:19:59.659Z,15.02
2019-04-21T09:22:17.881Z,15.02
2019-04-21T09:25:09.083Z,14.96
2019-04-21T09:27:27.026Z,14.94
2019-04-21T09:29:48.958Z,15.00
2019-04-21T09:32:18.312Z,15.12
2019-04-21T09:34:47.092Z,15.15
2019-04-21T09:37:28.651Z,15.14
2019-04-21T09:39:53.456Z,15.20
2019-04-21T09:42:36.072Z,15.22
2019-04-21T09:45:12.555Z,15.22
2019-04-21T09:47:57.431Z,15.22
2019-04-21T09:50:19.844Z,15.24
2019-04-21T09:52:57.718Z,15.25
2019-04-21T09:55:25.014Z,15.30
2019-04-21T09:58:08.736Z,15.37
2019-04-21T10:00:30.630Z,15.37
2019-04-21T10:03:06.081Z,15.38
2019-04-21T10:05:30.044Z,15.42
2019-04-21T10:08:01.260Z,15.46
2019-04-21T10:10:32.526Z,15.48
2019-04-21T10:13:04.960Z,15.52
2019-04-21T10:15:35.523Z,15.57
2019-04-21T10:18:17.260Z,15.63
2019-04-21T10:20:47.029Z,15.69
2019-04-21T10:23:17.859Z,15.75
2019-04-21T10:25:48.478Z,15.81
2019-04-21T10:28:19.104Z,15.83
2019-04-21T10:30:49.069Z,15.83
2019-04-21T10:33:18.974Z,15.86
2019-04-21T10:35:48.945Z,15.89
2019-04-21T10:38:28.241Z,15.93
2019-04-21T10:40:50.166Z,15.96
2019-04-21T10:43:22.169Z,16.03
2019-04-21T10:45:52.904Z,16.09
2019-04-21T10:48:23.087Z,16.10
2019-04-21T10:50:54.893Z,16.10
2019-04-21T10:53:27.024Z,16.11
2019-04-21T10:56:11.373Z,16.12
2019-04-21T10:58:29.960Z,16.18
2019-04-21T11:01:14.206Z,16.20
2019-04-21T11:04:02.715Z,16.20
2019-04-21T11:06:32.711Z,16.22
2019-04-21T11:09:04.813Z,16.23
2019-04-21T11:11:34.146Z,16.32
2019-04-21T11:14:04.410Z,16.35
2019-04-21T11:16:35.186Z,16.39
2019-04-21T11:19:06.434Z,16.37
2019-04-21T11:21:36.738Z,16.39
2019-04-21T11:24:10.254Z,16.42
2019-04-21T11:26:40.175Z,16.47
2019-04-21T11:29:10.812Z,16.54
2019-04-21T11:31:41.080Z,16.56
2019-04-21T11:34:11.332Z,16.59
2019-04-21T11:36:41.248Z,16.64
2019-04-21T11:39:25.736Z,16.70
2019-04-21T11:41:47.746Z,16.82
2019-04-21T11:44:18.614Z,16.95
2019-04-21T11:46:50.168Z,17.05
2019-04-21T11:49:20.098Z,17.16
2019-04-21T11:51:51.223Z,17.26
2019-04-21T11:54:20.840Z,17.33
2019-04-21T11:56:50.683Z,17.41
2019-04-21T11:59:21.685Z,17.51
2019-04-21T12:01:51.810Z,17.63
2019-04-21T12:04:23.451Z,17.77
2019-04-21T12:06:54.578Z,17.93
2019-04-21T12:09:25.105Z,18.10
2019-04-21T12:11:57.038Z,18.36
2019-04-21T12:14:28.035Z,18.67
2019-04-21T12:16:59.457Z,19.11
2019-04-21T12:19:30.466Z,19.73
2019-04-21T12:22:08.820Z,20.51
2019-04-21T12:24:34.916Z,21.41
2019-04-21T12:27:05.823Z,22.30
2019-04-21T12:29:35.645Z,23.10
2019-04-21T12:32:20.247Z,23.73
2019-04-21T12:34:52.163Z,24.06
2019-04-21T12:37:22.769Z,24.65
2019-04-21T12:39:52.604Z,25.02
2019-04-21T12:42:22.866Z,25.56
2019-04-21T12:44:52.639Z,26.06
2019-04-21T12:47:22.275Z,26.41
2019-04-21T12:49:52.127Z,26.57
2019-04-21T12:52:21.906Z,27.08
2019-04-21T12:54:51.609Z,27.50
2019-04-21T12:57:21.470Z,27.96
2019-04-21T12:59:52.913Z,28.44
2019-04-21T13:02:22.715Z,28.97
2019-04-21T13:04:53.916Z,29.48
2019-04-21T13:07:23.902Z,29.77
2019-04-21T13:09:54.585Z,30.00
2019-04-21T13:12:24.864Z,30.34
2019-04-21T13:14:56.442Z,30.87
2019-04-21T13:17:25.963Z,31.58
2019-04-21T13:19:56.990Z,32.40
2019-04-21T13:22:27.997Z,33.23
2019-04-21T13:25:00.073Z,33.97
2019-04-21T13:27:30.899Z,34.80
2019-04-21T13:30:00.576Z,35.41
2019-04-21T13:32:31.158Z,36.11
2019-04-21T13:35:01.405Z,36.67
2019-04-21T13:37:31.037Z,37.29
2019-04-21T13:40:25.004Z,36.76
2019-04-21T13:42:43.915Z,35.24
2019-04-21T13:45:12.158Z,36.13
2019-04-21T13:47:43.521Z,37.40
2019-04-21T13:50:13.630Z,38.31
2019-04-21T13:52:44.898Z,39.16
2019-04-21T13:55:15.860Z,39.69
2019-04-21T13:57:48.173Z,39.71
2019-04-21T14:00:19.406Z,37.69
2019-04-21T14:02:49.138Z,35.42
2019-04-21T14:05:20.334Z,33.53
2019-04-21T14:07:50.307Z,31.76
2019-04-21T14:10:21.889Z,30.66
2019-04-21T14:12:52.028Z,29.30
2019-04-21T14:15:22.313Z,27.99
2019-04-21T14:17:53.052Z,26.97
2019-04-21T14:20:22.958Z,26.13
2019-04-21T14:22:53.895Z,25.45
2019-04-21T14:25:25.848Z,24.91
2019-04-21T14:27:57.453Z,24.56
2019-04-21T14:30:28.449Z,24.27
2019-04-21T14:32:58.237Z,23.98
2019-04-21T14:35:29.393Z,23.70
2019-04-21T14:38:00.550Z,23.57
2019-04-21T14:40:33.223Z,23.51
2019-04-21T14:43:02.633Z,23.44
2019-04-21T14:45:38.686Z,23.34
2019-04-21T14:48:29.577Z,23.22
2019-04-21T14:51:02.207Z,23.08
2019-04-21T14:53:34.074Z,22.90
2019-04-21T14:56:04.543Z,22.73
2019-04-21T14:58:35.061Z,22.59
2019-04-21T15:01:08.165Z,22.65
2019-04-21T15:03:39.577Z,22.51
2019-04-21T15:06:11.512Z,22.46
2019-04-21T15:08:42.783Z,22.33
2019-04-21T15:11:13.977Z,22.19
2019-04-21T15:13:44.076Z,22.06
2019-04-21T15:16:14.935Z,22.00
2019-04-21T15:18:44.846Z,21.89
2019-04-21T15:21:15.807Z,21.83
2019-04-21T15:23:46.564Z,21.73
2019-04-21T15:26:17.912Z,21.65
2019-04-21T15:28:48.871Z,21.58
2019-04-21T15:31:27.484Z,21.58
2019-04-21T15:33:50.981Z,21.68
2019-04-21T15:36:22.809Z,21.73
2019-04-21T15:38:53.997Z,21.77
2019-04-21T15:41:24.695Z,21.77
2019-04-21T15:43:54.477Z,21.75
2019-04-21T15:46:24.850Z,21.66
2019-04-21T15:48:55.132Z,21.61
2019-04-21T15:51:25.965Z,21.63
2019-04-21T15:53:57.498Z,21.66
2019-04-21T15:56:28.971Z,21.64
2019-04-21T15:59:00.996Z,21.58
2019-04-21T16:01:38.886Z,21.57
2019-04-21T16:04:08.775Z,21.41
2019-04-21T16:06:39.404Z,21.32
2019-04-21T16:09:14.932Z,21.33
2019-04-21T16:11:42.108Z,21.33
2019-04-21T16:14:11.954Z,21.29
2019-04-21T16:16:43.189Z,21.03
2019-04-21T16:19:14.204Z,20.75
2019-04-21T16:21:46.322Z,20.33
2019-04-21T16:24:16.333Z,19.93
2019-04-21T16:26:46.865Z,19.53
2019-04-21T16:29:17.412Z,19.16
2019-04-21T16:31:47.139Z,18.84
2019-04-21T16:34:17.847Z,18.58
2019-04-21T16:36:47.707Z,18.35
2019-04-21T16:39:19.639Z,18.05
2019-04-21T16:41:50.012Z,17.80
2019-04-21T16:44:21.012Z,17.61
2019-04-21T16:46:51.664Z,17.45
2019-04-21T16:49:22.059Z,17.31
2019-04-21T16:51:54.031Z,17.23
2019-04-21T16:54:26.224Z,17.12
2019-04-21T16:57:03.741Z,17.01
2019-04-21T16:59:35.118Z,16.92
2019-04-21T17:02:05.180Z,16.79
2019-04-21T17:04:36.208Z,16.68
2019-04-21T17:07:07.437Z,16.56
2019-04-21T17:09:37.310Z,16.48
2019-04-21T17:12:13.799Z,16.40
2019-04-21T17:14:53.610Z,16.30
2019-04-21T17:17:34.153Z,16.15
2019-04-21T17:19:47.015Z,16.09
2019-04-21T17:22:15.701Z,16.01
2019-04-21T17:24:46.510Z,15.97
2019-04-21T17:27:17.432Z,15.85
2019-04-21T17:29:48.516Z,15.78
2019-04-21T17:32:18.538Z,15.72
2019-04-21T17:34:48.263Z,15.65
2019-04-21T17:37:20.540Z,15.61
2019-04-21T17:39:49.370Z,15.53
2019-04-21T17:42:33.020Z,15.46
2019-04-21T17:44:51.045Z,15.40
2019-04-21T17:47:34.160Z,15.30
2019-04-21T17:50:07.659Z,15.20
2019-04-21T17:52:45.935Z,15.14
2019-04-21T17:55:23.000Z,15.08
2019-04-21T17:58:06.699Z,15.00
2019-04-21T18:01:09.211Z,14.94
2019-04-21T18:03:26.891Z,14.87
2019-04-21T18:05:43.118Z,14.81
2019-04-21T18:08:21.510Z,14.73
2019-04-21T18:10:43.991Z,14.66
2019-04-21T18:13:07.910Z,14.58
2019-04-21T18:15:46.952Z,14.53
2019-04-21T18:18:05.168Z,14.49
2019-04-21T18:20:44.007Z,14.49
2019-04-21T18:23:36.200Z,14.54
2019-04-21T18:26:01.567Z,14.61
2019-04-21T18:28:24.310Z,14.64
2019-04-21T18:30:58.318Z,14.57
2019-04-21T18:33:33.855Z,14.49
2019-04-21T18:36:04.140Z,14.42
2019-04-21T18:39:03.000Z,14.40
2019-04-21T18:41:19.616Z,14.46
2019-04-21T18:44:27.933Z,14.41
2019-04-21T18:47:03.620Z,14.30
2019-04-21T18:49:13.400Z,14.16
2019-04-21T18:51:57.129Z,14.05
2019-04-21T18:54:41.241Z,13.97
2019-04-21T18:57:07.662Z,13.92
2019-04-21T18:59:36.142Z,13.86
2019-04-21T19:02:06.259Z,13.82
2019-04-21T19:04:35.152Z,13.77
2019-04-21T19:07:18.261Z,13.73
2019-04-21T19:10:11.304Z,13.68
2019-04-21T19:12:47.675Z,13.63
2019-04-21T19:14:54.898Z,13.57
2019-04-21T19:18:05.036Z,13.55
2019-04-21T19:20:07.475Z,13.52
2019-04-21T19:22:34.207Z,13.48
2019-04-21T19:25:13.794Z,13.49
2019-04-21T19:27:50.243Z,13.52
2019-04-21T19:32:51.485Z,13.38
2019-04-21T19:35:07.122Z,13.33
2019-04-21T19:37:43.839Z,13.24
2019-04-21T19:40:31.044Z,13.20
2019-04-21T19:42:55.837Z,13.01
2019-04-21T19:45:35.484Z,12.81
2019-04-21T19:48:13.680Z,12.59
2019-04-21T19:50:48.475Z,12.43
2019-04-21T19:53:08.882Z,12.31
2019-04-21T19:55:32.019Z,12.20
2019-04-21T19:58:03.153Z,12.15
2019-04-21T20:00:34.731Z,12.12
2019-04-21T20:03:06.130Z,12.02
2019-04-21T20:05:43.529Z,11.95
2019-04-21T20:08:23.332Z,11.80
2019-04-21T20:11:00.892Z,11.59
2019-04-21T20:13:40.554Z,11.51
2019-04-21T20:16:01.524Z,11.61
2019-04-21T20:18:25.133Z,11.66
2019-04-21T20:20:48.110Z,11.72
2019-04-21T20:23:27.730Z,11.79
2019-04-21T20:26:02.259Z,11.82
2019-04-21T20:28:44.278Z,11.73
2019-04-21T20:31:20.359Z,11.60
2019-04-21T20:33:52.546Z,11.52
2019-04-21T20:38:45.246Z,11.59
2019-04-21T20:41:22.371Z,11.60
2019-04-21T20:44:00.692Z,11.55
2019-04-21T20:46:31.050Z,11.51
2019-04-21T20:49:00.049Z,11.46
2019-04-21T20:51:36.204Z,11.30
2019-04-21T20:54:01.803Z,11.15
2019-04-21T20:56:37.045Z,11.13
2019-04-21T20:59:07.819Z,11.08
2019-04-21T21:01:47.776Z,11.02
2019-04-21T21:04:06.419Z,10.97
2019-04-21T21:06:42.373Z,10.82
2019-04-21T21:09:14.050Z,10.78
2019-04-21T21:11:56.796Z,10.73
2019-04-21T21:14:23.477Z,10.77
2019-04-21T21:16:50.755Z,10.81
2019-04-21T21:19:40.102Z,10.76
2019-04-21T21:21:48.599Z,10.77
2019-04-21T21:24:33.979Z,10.81
2019-04-21T21:26:58.118Z,10.82
2019-04-21T21:29:26.893Z,10.79
2019-04-21T21:32:11.239Z,10.82
2019-04-21T21:34:33.474Z,10.70
2019-04-21T21:37:14.118Z,10.55
2019-04-21T21:39:40.387Z,10.49
2019-04-21T21:41:53.998Z,10.39
2019-04-21T21:44:22.790Z,10.30
2019-04-21T21:47:01.585Z,10.31
2019-04-21T21:49:33.580Z,10.20
2019-04-21T21:52:06.152Z,10.18
2019-04-21T21:54:25.771Z,10.07
2019-04-21T21:56:56.414Z,10.07
2019-04-21T21:59:29.400Z,10.14
2019-04-21T22:01:58.341Z,10.16
2019-04-21T22:04:32.439Z,10.16
2019-04-21T22:07:07.255Z,10.16
2019-04-21T22:09:32.429Z,10.13
2019-04-21T22:12:06.262Z,10.03
2019-04-21T22:14:41.493Z,10.03
2019-04-21T22:17:21.487Z,10.09
2019-04-21T22:20:03.305Z,10.05
2019-04-21T22:22:23.319Z,10.08
2019-04-21T22:24:53.513Z,10.12
2019-04-21T22:27:12.967Z,10.09
2019-04-21T22:29:48.202Z,10.06
2019-04-21T22:32:19.300Z,9.97
2019-04-21T22:34:52.358Z,9.82
2019-04-21T22:37:30.822Z,9.76
2019-04-21T22:40:04.700Z,9.78
2019-04-21T22:42:27.653Z,9.77
2019-04-21T22:44:54.530Z,9.75
2019-04-21T22:47:31.633Z,9.74
2019-04-21T22:49:56.851Z,9.73
2019-04-21T22:52:29.620Z,9.65
2019-04-21T22:55:00.829Z,9.63
2019-04-21T22:57:39.126Z,9.64
2019-04-21T23:00:07.123Z,9.56
2019-04-21T23:02:35.735Z,9.37
2019-04-21T23:05:07.927Z,9.35
2019-04-21T23:07:44.205Z,9.41
2019-04-21T23:10:09.780Z,9.46
2019-04-21T23:12:42.056Z,9.46
2019-04-21T23:15:17.293Z,9.46
2019-04-21T23:18:02.134Z,9.48
2019-04-21T23:20:34.589Z,9.47
2019-04-21T23:23:23.669Z,9.41
2019-04-21T23:25:38.632Z,9.21
2019-04-21T23:28:08.822Z,9.16
2019-04-21T23:30:51.100Z,9.16
2019-04-21T23:33:03.862Z,9.14
2019-04-21T23:35:34.820Z,9.17
2019-04-21T23:38:03.562Z,9.18
2019-04-21T23:40:31.459Z,9.17
2019-04-21T23:43:09.288Z,9.11
2019-04-21T23:45:37.730Z,9.01
2019-04-21T23:48:18.607Z,8.88
2019-04-21T23:50:45.873Z,8.76
2019-04-21T23:53:11.320Z,8.70
2019-04-21T23:55:43.313Z,8.61
2019-04-21T23:58:20.145Z,8.60
